Time;durP1;ratioP1;P1;durP2;ratioP2;P2;SDS_P1;SDS_P2;PMS_P1;PMS_P2;Temp;Humidity;BMP_temperature;BMP_pressure;BME280_temperature;BME280_humidity;BME280_pressure;Samples;Min_cycle;Max_cycle;Signal;HPM_P1;HPM_P2
2022/04/24 00:01:24;;;;;;;;;;;21.20;40.20;;;;;;5147324;27;19991;-60
2022/04/24 00:03:50;;;;;;;;;;;21.30;39.80;;;;;;5141879;27;19931;-48
2022/04/24 00:06:16;;;;;;;;;;;21.10;40.30;;;;;;5142004;27;19930;-58
2022/04/24 00:08:41;;;;;;;;;;;21.30;39.90;;;;;;5127427;27;19973;-58
2022/04/24 00:11:07;;;;;;;;;;;21.20;40.00;;;;;;5141872;27;20397;-55
2022/04/24 00:13:41;;;;;;;;;;;21.10;40.20;;;;;;5138641;27;19927;-58
2022/04/24 00:16:07;;;;;;;;;;;21.20;40.10;;;;;;5145388;27;19931;-56
2022/04/24 00:18:34;;;;;;;;;;;21.10;40.30;;;;;;5141685;27;20018;-49
2022/04/24 00:21:01;;;;;;;;;;;21.10;40.30;;;;;;5125280;27;19934;-55
2022/04/24 00:23:27;;;;;;;;;;;21.20;40.10;;;;;;5145430;27;19923;-50
2022/04/24 00:25:53;;;;;;;;;;;21.20;40.10;;;;;;5141512;27;19922;-54
2022/04/24 00:28:18;;;;;;;;;;;21.30;40.00;;;;;;5147066;27;20359;-53
2022/04/24 00:30:44;;;;;;;;;;;21.10;40.00;;;;;;5141042;27;19964;-55
2022/04/24 00:33:10;;;;;;;;;;;21.10;40.00;;;;;;5137572;27;19971;-49
2022/04/24 00:35:36;;;;;;;;;;;21.30;39.80;;;;;;5146734;27;19941;-57
2022/04/24 00:38:01;;;;;;;;;;;21.30;39.80;;;;;;5141325;27;19931;-53
2022/04/24 00:40:27;;;;;;;;;;;21.20;40.10;;;;;;5141632;27;20027;-54
2022/04/24 00:42:53;;;;;;;;;;;21.20;40.00;;;;;;5146704;27;20314;-57
2022/04/24 00:45:19;;;;;;;;;;;21.10;40.10;;;;;;5141362;27;20020;-55
2022/04/24 00:47:45;;;;;;;;;;;21.10;40.10;;;;;;5146901;27;19971;-58
2022/04/24 00:50:10;;;;;;;;;;;21.20;39.90;;;;;;5138334;27;19969;-51
2022/04/24 00:52:37;;;;;;;;;;;21.10;40.10;;;;;;5139349;27;19924;-57
2022/04/24 00:55:03;;;;;;;;;;;21.30;39.70;;;;;;5128190;27;19968;-53
2022/04/24 00:57:29;;;;;;;;;;;21.10;39.80;;;;;;5141395;27;19927;-54
2022/04/24 00:59:54;;;;;;;;;;;21.10;39.80;;;;;;5141515;27;20333;-56
2022/04/24 01:02:20;;;;;;;;;;;21.20;39.60;;;;;;5146730;27;19927;-58
2022/04/24 01:04:46;;;;;;;;;;;21.20;39.60;;;;;;5141513;27;19927;-54
2022/04/24 01:07:12;;;;;;;;;;;21.10;39.90;;;;;;5146653;27;19932;-58
2022/04/24 01:09:37;;;;;;;;;;;21.30;39.60;;;;;;5136499;27;19966;-56
2022/04/24 01:12:03;;;;;;;;;;;21.30;39.60;;;;;;5140561;27;19930;-55
2022/04/24 01:14:30;;;;;;;;;;;21.10;39.80;;;;;;5146306;27;19927;-48
2022/04/24 01:16:56;;;;;;;;;;;21.10;39.90;;;;;;5141081;27;20299;-59
2022/04/24 01:19:24;;;;;;;;;;;21.30;39.50;;;;;;5140943;27;20171;-58
2022/04/24 01:21:49;;;;;;;;;;;21.20;39.50;;;;;;5146447;27;19927;-54
2022/04/24 01:24:18;;;;;;;;;;;21.10;39.70;;;;;;5141207;27;20378;-59
2022/04/24 01:26:44;;;;;;;;;;;21.10;39.60;;;;;;5124139;27;20022;-57
2022/04/24 01:29:11;;;;;;;;;;;21.00;39.80;;;;;;5140021;27;19934;-57
2022/04/24 01:31:37;;;;;;;;;;;21.20;39.40;;;;;;5121020;27;19927;-56
2022/04/24 01:34:03;;;;;;;;;;;21.10;39.30;;;;;;5149350;27;19934;-48
2022/04/24 01:36:28;;;;;;;;;;;21.20;39.30;;;;;;5144349;27;19923;-59
2022/04/24 01:38:54;;;;;;;;;;;21.20;39.20;;;;;;5144403;27;19948;-47
2022/04/24 01:41:20;;;;;;;;;;;21.00;39.50;;;;;;5149870;27;20390;-54
2022/04/24 01:43:47;;;;;;;;;;;21.30;39.00;;;;;;5144467;27;20340;-58
2022/04/24 01:46:12;;;;;;;;;;;21.30;39.00;;;;;;5141042;27;21044;-57
2022/04/24 01:48:38;;;;;;;;;;;21.20;39.10;;;;;;5147802;27;19923;-52
2022/04/24 01:51:05;;;;;;;;;;;21.10;39.40;;;;;;5144084;27;19923;-57
2022/04/24 01:53:31;;;;;;;;;;;21.30;39.10;;;;;;5149539;27;20042;-57
2022/04/24 01:55:57;;;;;;;;;;;21.10;39.30;;;;;;5144315;27;19930;-57
2022/04/24 01:58:23;;;;;;;;;;;21.30;39.20;;;;;;5144276;27;19923;-58
2022/04/24 02:00:49;;;;;;;;;;;21.30;39.00;;;;;;5145555;27;19928;-58
2022/04/24 02:03:15;;;;;;;;;;;21.20;39.50;;;;;;5141470;27;19929;-50
2022/04/24 02:05:41;;;;;;;;;;;21.10;39.60;;;;;;5141629;27;19923;-56
2022/04/24 02:08:07;;;;;;;;;;;21.30;39.40;;;;;;5149034;27;19976;-54
2022/04/24 02:10:32;;;;;;;;;;;21.00;39.80;;;;;;5143785;27;20291;-56
2022/04/24 02:12:58;;;;;;;;;;;21.20;39.60;;;;;;5149444;27;19949;-58
2022/04/24 02:15:24;;;;;;;;;;;21.20;39.50;;;;;;5144034;27;19927;-52
2022/04/24 02:17:50;;;;;;;;;;;21.10;39.70;;;;;;5143874;27;19923;-55
2022/04/24 02:20:15;;;;;;;;;;;21.10;40.00;;;;;;5130823;27;19935;-56
2022/04/24 02:22:41;;;;;;;;;;;21.20;39.90;;;;;;5139613;27;20430;-52
2022/04/24 02:25:07;;;;;;;;;;;21.20;39.90;;;;;;5142902;27;19923;-56
2022/04/24 02:27:34;;;;;;;;;;;21.20;39.80;;;;;;5148861;27;19923;-58
2022/04/24 02:29:59;;;;;;;;;;;21.20;39.80;;;;;;5143513;27;19923;-54
2022/04/24 02:32:25;;;;;;;;;;;21.20;39.90;;;;;;5149068;27;19995;-57
2022/04/24 02:34:51;;;;;;;;;;;21.20;39.80;;;;;;5143537;27;19927;-58
2022/04/24 02:37:17;;;;;;;;;;;21.30;39.70;;;;;;5143478;27;20018;-56
2022/04/24 02:39:43;;;;;;;;;;;21.10;39.90;;;;;;5146817;27;19923;-56
2022/04/24 02:42:08;;;;;;;;;;;21.30;39.80;;;;;;5140594;27;19923;-57
2022/04/24 02:44:34;;;;;;;;;;;21.20;40.20;;;;;;5142336;27;20231;-56
2022/04/24 02:47:00;;;;;;;;;;;21.10;40.80;;;;;;5148804;27;19934;-54
2022/04/24 02:49:26;;;;;;;;;;;21.20;41.10;;;;;;5143082;27;19927;-57
2022/04/24 02:51:52;;;;;;;;;;;21.10;41.50;;;;;;5148368;27;19934;-56
2022/04/24 02:54:18;;;;;;;;;;;21.10;41.80;;;;;;5144063;27;19960;-58
2022/04/24 02:56:43;;;;;;;;;;;21.20;41.90;;;;;;5143403;27;19930;-48
2022/04/24 02:59:11;;;;;;;;;;;21.10;42.10;;;;;;5144779;27;20340;-58
2022/04/24 03:01:38;;;;;;;;;;;21.30;41.60;;;;;;5141806;27;19939;-54
2022/04/24 03:04:05;;;;;;;;;;;21.10;42.10;;;;;;5143023;27;19937;-53
2022/04/24 03:06:30;;;;;;;;;;;21.00;42.20;;;;;;5148642;27;20320;-53
2022/04/24 03:08:56;;;;;;;;;;;21.10;42.30;;;;;;5143044;27;19931;-59
2022/04/24 03:11:22;;;;;;;;;;;21.30;42.40;;;;;;5144643;27;19923;-56
2022/04/24 03:13:48;;;;;;;;;;;21.10;42.60;;;;;;5147333;27;20328;-59
2022/04/24 03:16:13;;;;;;;;;;;21.20;42.20;;;;;;5141424;27;20156;-54
2022/04/24 03:18:40;;;;;;;;;;;21.20;42.10;;;;;;5144733;27;19976;-57
2022/04/24 03:21:06;;;;;;;;;;;21.10;42.20;;;;;;5142317;27;19930;-52
2022/04/24 03:23:31;;;;;;;;;;;21.00;42.80;;;;;;5142568;27;20294;-58
2022/04/24 03:25:57;;;;;;;;;;;21.20;42.60;;;;;;5148251;27;19930;-56
2022/04/24 03:28:23;;;;;;;;;;;21.00;43.10;;;;;;5142655;27;19934;-59
2022/04/24 03:30:49;;;;;;;;;;;21.30;42.70;;;;;;5142590;27;19934;-52
2022/04/24 03:33:15;;;;;;;;;;;21.10;43.10;;;;;;5148122;27;19923;-56
2022/04/24 03:35:40;;;;;;;;;;;21.20;42.80;;;;;;5139057;27;19934;-55
2022/04/24 03:38:06;;;;;;;;;;;21.10;43.00;;;;;;5145871;27;19923;-56
2022/04/24 03:40:35;;;;;;;;;;;21.20;42.80;;;;;;5142284;27;20263;-56
2022/04/24 03:43:01;;;;;;;;;;;21.10;42.90;;;;;;5142465;27;19927;-54
2022/04/24 03:45:27;;;;;;;;;;;21.10;43.10;;;;;;5129036;27;19930;-56
2022/04/24 03:47:52;;;;;;;;;;;21.10;43.20;;;;;;5142255;27;19923;-54
2022/04/24 03:50:21;;;;;;;;;;;21.10;43.20;;;;;;5142447;27;20094;-54
2022/04/24 03:52:47;;;;;;;;;;;21.20;43.20;;;;;;5146964;27;19927;-47
2022/04/24 03:55:13;;;;;;;;;;;21.10;43.50;;;;;;5136971;27;19934;-57
2022/04/24 03:57:39;;;;;;;;;;;21.30;42.90;;;;;;5128398;27;19931;-52
2022/04/24 04:00:05;;;;;;;;;;;21.10;43.30;;;;;;5142327;27;19985;-58
2022/04/24 04:02:31;;;;;;;;;;;21.20;43.10;;;;;;5138466;27;19930;-54
2022/04/24 04:04:57;;;;;;;;;;;21.20;42.90;;;;;;5147736;27;19923;-56
2022/04/24 04:07:23;;;;;;;;;;;21.10;43.20;;;;;;5142151;27;20014;-48
2022/04/24 04:09:49;;;;;;;;;;;21.10;43.20;;;;;;5142198;27;20143;-57
2022/04/24 04:12:15;;;;;;;;;;;21.20;43.10;;;;;;5144472;27;19927;-53
2022/04/24 04:14:40;;;;;;;;;;;21.10;43.10;;;;;;5139831;27;20362;-55
2022/04/24 04:17:06;;;;;;;;;;;21.20;42.90;;;;;;5145072;27;19923;-57
2022/04/24 04:19:32;;;;;;;;;;;21.20;42.90;;;;;;5144427;27;19972;-58
2022/04/24 04:21:58;;;;;;;;;;;21.20;43.00;;;;;;5141630;27;19931;-55
2022/04/24 04:24:24;;;;;;;;;;;21.20;42.90;;;;;;5147320;27;19932;-58
2022/04/24 04:26:49;;;;;;;;;;;21.10;43.00;;;;;;5141794;27;20434;-52
2022/04/24 04:29:15;;;;;;;;;;;21.20;42.90;;;;;;5141510;27;20422;-53
2022/04/24 04:31:41;;;;;;;;;;;21.10;43.30;;;;;;5142453;27;19944;-52
2022/04/24 04:34:07;;;;;;;;;;;21.20;43.40;;;;;;5141083;27;20374;-50
2022/04/24 04:36:32;;;;;;;;;;;21.10;43.90;;;;;;5124223;27;19978;-55
2022/04/24 04:38:58;;;;;;;;;;;21.20;44.00;;;;;;5146292;27;19974;-58
2022/04/24 04:41:24;;;;;;;;;;;21.30;43.90;;;;;;5141738;27;19929;-55
2022/04/24 04:43:50;;;;;;;;;;;21.10;44.20;;;;;;5147073;27;19927;-47
2022/04/24 04:46:16;;;;;;;;;;;21.10;44.50;;;;;;5141345;27;20386;-58
2022/04/24 04:48:42;;;;;;;;;;;21.20;44.50;;;;;;5138700;27;19923;-56
2022/04/24 04:51:08;;;;;;;;;;;21.10;44.50;;;;;;5144363;27;20013;-56
2022/04/24 04:53:34;;;;;;;;;;;21.20;43.60;;;;;;5141087;27;19923;-57
2022/04/24 04:56:00;;;;;;;;;;;21.20;42.90;;;;;;5141235;27;20857;-48
2022/04/24 04:58:26;;;;;;;;;;;21.10;42.90;;;;;;5146755;27;19923;-48
2022/04/24 05:00:52;;;;;;;;;;;21.20;42.60;;;;;;5141355;27;19923;-55
2022/04/24 05:03:18;;;;;;;;;;;21.20;42.30;;;;;;5146733;27;19934;-53
2022/04/24 05:05:43;;;;;;;;;;;21.20;42.20;;;;;;5141326;27;19928;-54
2022/04/24 05:08:09;;;;;;;;;;;21.10;41.80;;;;;;5140182;27;19924;-53
2022/04/24 05:10:35;;;;;;;;;;;21.20;41.60;;;;;;5149428;27;20294;-56
2022/04/24 05:13:01;;;;;;;;;;;21.10;41.70;;;;;;5144700;27;19937;-59
2022/04/24 05:15:27;;;;;;;;;;;21.20;41.50;;;;;;5144726;27;20637;-51
2022/04/24 05:17:53;;;;;;;;;;;21.10;41.70;;;;;;5150269;27;20018;-59
2022/04/24 05:20:18;;;;;;;;;;;21.30;40.90;;;;;;5144751;27;20301;-54
2022/04/24 05:22:44;;;;;;;;;;;21.00;41.10;;;;;;5150028;27;20444;-55
2022/04/24 05:25:10;;;;;;;;;;;21.30;40.60;;;;;;5142371;27;19923;-57
2022/04/24 05:27:36;;;;;;;;;;;21.10;40.90;;;;;;5141936;27;19929;-52
2022/04/24 05:30:05;;;;;;;;;;;21.10;40.60;;;;;;5149595;27;19924;-57
2022/04/24 05:32:57;;;;;;;;;;;21.10;40.40;;;;;;5144292;27;20298;-51
2022/04/24 05:35:23;;;;;;;;;;;21.10;40.50;;;;;;5139469;27;20300;-54
2022/04/24 05:37:49;;;;;;;;;;;21.20;40.40;;;;;;5149807;27;19927;-52
2022/04/24 05:40:15;;;;;;;;;;;21.20;40.20;;;;;;5144388;27;19927;-57
2022/04/24 05:42:44;;;;;;;;;;;21.20;39.80;;;;;;5144324;27;19922;-52
2022/04/24 05:45:14;;;;;;;;;;;21.00;40.00;;;;;;5145203;27;19942;-57
2022/04/24 05:47:41;;;;;;;;;;;21.30;39.60;;;;;;5143674;27;19933;-56
2022/04/24 05:50:07;;;;;;;;;;;21.10;39.70;;;;;;5144746;27;19931;-51
2022/04/24 05:52:33;;;;;;;;;;;21.20;39.50;;;;;;5149589;27;19946;-54
2022/04/24 05:54:58;;;;;;;;;;;21.20;39.40;;;;;;5144432;27;20437;-49
2022/04/24 05:57:24;;;;;;;;;;;21.10;39.60;;;;;;5149793;27;20263;-59
2022/04/24 05:59:50;;;;;;;;;;;21.20;39.40;;;;;;5125645;27;19923;-56
2022/04/24 06:02:16;;;;;;;;;;;21.10;39.30;;;;;;5141414;27;20855;-52
2022/04/24 06:04:42;;;;;;;;;;;21.20;39.20;;;;;;5147316;27;19923;-59
2022/04/24 06:07:07;;;;;;;;;;;21.20;39.30;;;;;;5143828;27;19976;-52
2022/04/24 06:09:33;;;;;;;;;;;21.10;39.40;;;;;;5143923;27;19923;-55
2022/04/24 06:12:01;;;;;;;;;;;21.20;39.10;;;;;;5149396;27;19934;-55
2022/04/24 06:14:27;;;;;;;;;;;21.30;39.30;;;;;;5143771;27;20382;-57
2022/04/24 06:16:52;;;;;;;;;;;21.20;39.20;;;;;;5149299;27;19962;-56
2022/04/24 06:19:18;;;;;;;;;;;21.20;39.30;;;;;;5143008;27;20352;-57
2022/04/24 06:21:44;;;;;;;;;;;21.20;39.10;;;;;;5120608;27;19934;-57
2022/04/24 06:24:10;;;;;;;;;;;21.20;39.00;;;;;;5148112;27;20310;-50
2022/04/24 06:26:35;;;;;;;;;;;21.20;39.00;;;;;;5143630;27;19923;-53
2022/04/24 06:29:02;;;;;;;;;;;21.20;38.80;;;;;;5143909;27;20013;-58
2022/04/24 06:31:28;;;;;;;;;;;21.30;38.70;;;;;;5149144;27;19945;-56
2022/04/24 06:33:54;;;;;;;;;;;21.10;39.00;;;;;;5143675;27;20294;-53
2022/04/24 06:36:20;;;;;;;;;;;21.10;39.10;;;;;;5148982;27;19934;-54
2022/04/24 06:38:45;;;;;;;;;;;21.20;39.00;;;;;;5140998;27;19930;-59
2022/04/24 06:41:11;;;;;;;;;;;21.20;38.90;;;;;;5140870;27;20370;-56
2022/04/24 06:43:37;;;;;;;;;;;21.30;39.00;;;;;;5148518;27;19927;-53
2022/04/24 06:46:03;;;;;;;;;;;21.20;39.00;;;;;;5143543;27;20291;-49
2022/04/24 06:48:29;;;;;;;;;;;21.10;39.30;;;;;;5143239;27;20732;-58
2022/04/24 06:50:55;;;;;;;;;;;21.20;38.90;;;;;;5148800;27;19927;-54
2022/04/24 06:53:21;;;;;;;;;;;21.00;39.50;;;;;;5143259;27;19927;-59
2022/04/24 06:55:47;;;;;;;;;;;21.20;39.20;;;;;;5147501;27;19922;-54
2022/04/24 06:58:13;;;;;;;;;;;21.20;39.40;;;;;;5140800;27;19927;-58
2022/04/24 07:00:41;;;;;;;;;;;21.20;39.20;;;;;;5142275;27;20401;-57
2022/04/24 07:03:14;;;;;;;;;;;21.20;39.40;;;;;;5148331;27;19924;-58
2022/04/24 07:05:39;;;;;;;;;;;21.20;39.20;;;;;;5142943;27;19924;-57
2022/04/24 07:08:05;;;;;;;;;;;21.10;39.70;;;;;;5143221;27;19930;-56
2022/04/24 07:10:31;;;;;;;;;;;21.20;39.30;;;;;;5129972;27;20033;-57
2022/04/24 07:12:57;;;;;;;;;;;21.20;39.60;;;;;;5143130;27;19923;-59
2022/04/24 07:15:23;;;;;;;;;;;21.20;39.90;;;;;;5140874;27;19923;-57
2022/04/24 07:17:49;;;;;;;;;;;21.10;40.00;;;;;;5145718;27;20389;-58
2022/04/24 07:20:16;;;;;;;;;;;21.30;39.40;;;;;;5142373;27;19985;-59
2022/04/24 07:22:42;;;;;;;;;;;21.00;40.00;;;;;;5148223;27;19937;-58
2022/04/24 07:25:08;;;;;;;;;;;21.20;39.50;;;;;;5143057;27;19970;-57
2022/04/24 07:27:34;;;;;;;;;;;21.10;39.90;;;;;;5142632;27;19937;-57
2022/04/24 07:30:00;;;;;;;;;;;21.30;39.30;;;;;;5148007;27;20193;-57
2022/04/24 07:32:25;;;;;;;;;;;21.00;39.90;;;;;;5142657;27;19931;-59
2022/04/24 07:34:51;;;;;;;;;;;21.30;39.40;;;;;;5138795;27;19923;-53
2022/04/24 07:37:17;;;;;;;;;;;21.00;39.90;;;;;;5146593;27;19988;-52
2022/04/24 07:39:43;;;;;;;;;;;21.20;39.70;;;;;;5142411;27;20421;-59
2022/04/24 07:42:09;;;;;;;;;;;21.00;40.30;;;;;;5147861;27;19924;-59
2022/04/24 07:44:35;;;;;;;;;;;21.30;39.70;;;;;;5142487;27;19930;-58
2022/04/24 07:47:01;;;;;;;;;;;21.10;40.00;;;;;;5142385;27;20010;-58
2022/04/24 07:49:27;;;;;;;;;;;21.30;39.60;;;;;;5147835;27;19943;-50
2022/04/24 07:51:52;;;;;;;;;;;21.10;39.80;;;;;;5140850;27;19934;-50
2022/04/24 07:54:18;;;;;;;;;;;21.20;39.70;;;;;;5138778;27;20103;-48
2022/04/24 07:56:46;;;;;;;;;;;21.10;39.80;;;;;;5147335;27;20382;-59
2022/04/24 07:59:12;;;;;;;;;;;21.30;39.60;;;;;;5142294;27;19923;-51
2022/04/24 08:01:37;;;;;;;;;;;21.10;39.70;;;;;;5145202;27;20342;-54
2022/04/24 08:04:03;;;;;;;;;;;21.20;39.80;;;;;;5144883;27;19939;-57
2022/04/24 08:06:29;;;;;;;;;;;21.10;40.10;;;;;;5142084;27;19958;-59
2022/04/24 08:08:55;;;;;;;;;;;21.20;40.20;;;;;;5147394;27;19923;-54
2022/04/24 08:11:21;;;;;;;;;;;21.10;40.50;;;;;;5138361;27;19923;-57
2022/04/24 08:13:46;;;;;;;;;;;21.10;41.00;;;;;;5140215;27;19945;-58
2022/04/24 08:16:12;;;;;;;;;;;21.20;40.80;;;;;;5147224;27;20014;-58
2022/04/24 08:18:38;;;;;;;;;;;21.00;41.40;;;;;;5141768;27;19929;-59
2022/04/24 08:21:04;;;;;;;;;;;21.20;40.70;;;;;;5123726;27;20425;-56
2022/04/24 08:23:29;;;;;;;;;;;21.10;40.90;;;;;;5146662;27;19987;-57
2022/04/24 08:25:55;;;;;;;;;;;21.20;40.70;;;;;;5141847;27;20526;-59
2022/04/24 08:28:21;;;;;;;;;;;21.00;41.20;;;;;;5146432;27;19997;-57
2022/04/24 08:30:48;;;;;;;;;;;21.20;41.00;;;;;;5138008;27;20063;-57
2022/04/24 08:33:15;;;;;;;;;;;21.10;41.40;;;;;;5141079;27;20387;-56
2022/04/24 08:35:41;;;;;;;;;;;21.20;41.20;;;;;;5147071;27;19927;-56
2022/04/24 08:38:07;;;;;;;;;;;21.10;41.50;;;;;;5141607;27;19931;-58
2022/04/24 08:40:32;;;;;;;;;;;21.20;41.20;;;;;;5141513;27;19923;-58
2022/04/24 08:43:00;;;;;;;;;;;21.10;41.70;;;;;;5146525;27;20294;-59
2022/04/24 08:45:26;;;;;;;;;;;21.30;41.50;;;;;;5141581;27;19930;-58
2022/04/24 08:47:52;;;;;;;;;;;20.90;42.40;;;;;;5143488;27;20349;-58
2022/04/24 08:50:18;;;;;;;;;;;21.30;41.60;;;;;;5139718;27;20013;-58
2022/04/24 08:52:46;;;;;;;;;;;20.90;42.40;;;;;;5141250;27;19972;-47
2022/04/24 08:55:12;;;;;;;;;;;21.30;42.00;;;;;;5146959;27;19932;-50
2022/04/24 08:57:38;;;;;;;;;;;21.10;42.30;;;;;;5141612;27;19938;-55
2022/04/24 09:00:07;;;;;;;;;;;21.30;42.10;;;;;;5141383;27;20198;-57
2022/04/24 09:02:33;;;;;;;;;;;20.90;42.60;;;;;;5146871;27;19930;-55
2022/04/24 09:04:58;;;;;;;;;;;21.20;42.10;;;;;;5141042;27;19975;-51
2022/04/24 09:07:29;;;;;;;;;;;21.00;42.60;;;;;;5140770;27;20380;-53
2022/04/24 09:09:55;;;;;;;;;;;21.30;42.20;;;;;;5144681;27;20302;-50
2022/04/24 09:12:24;;;;;;;;;;;21.00;42.60;;;;;;5141193;27;19930;-56
2022/04/24 09:14:53;;;;;;;;;;;21.20;42.30;;;;;;5146885;27;20450;-57
2022/04/24 09:17:23;;;;;;;;;;;21.00;42.70;;;;;;5141298;27;20363;-52
2022/04/24 09:19:49;;;;;;;;;;;21.20;42.30;;;;;;5141472;27;19923;-52
2022/04/24 09:22:15;;;;;;;;;;;21.00;42.40;;;;;;5146487;27;19927;-55
2022/04/24 09:24:44;;;;;;;;;;;21.30;42.10;;;;;;5119295;27;20075;-58
2022/04/24 09:27:11;;;;;;;;;;;21.10;42.40;;;;;;5139307;27;19923;-59
2022/04/24 09:29:38;;;;;;;;;;;21.30;41.90;;;;;;5146201;27;19927;-56
2022/04/24 09:32:11;;;;;;;;;;;21.00;42.20;;;;;;5141046;27;19930;-49
2022/04/24 09:34:37;;;;;;;;;;;21.20;41.90;;;;;;5142114;27;20382;-57
2022/04/24 09:37:03;;;;;;;;;;;21.20;42.20;;;;;;5145838;27;20018;-57
2022/04/24 09:39:33;;;;;;;;;;;21.20;42.20;;;;;;5121874;27;20324;-57
2022/04/24 09:42:02;;;;;;;;;;;21.20;42.10;;;;;;5145416;27;20026;-55
2022/04/24 09:44:28;;;;;;;;;;;21.20;42.20;;;;;;5137297;27;20080;-54
2022/04/24 09:46:58;;;;;;;;;;;21.20;42.10;;;;;;5121802;27;19931;-55
2022/04/24 09:49:24;;;;;;;;;;;21.20;42.40;;;;;;5126445;27;20336;-57
2022/04/24 09:51:49;;;;;;;;;;;21.10;42.50;;;;;;5140955;27;19927;-56
2022/04/24 09:54:15;;;;;;;;;;;21.10;42.80;;;;;;5142910;27;19923;-54
2022/04/24 09:56:41;;;;;;;;;;;21.00;42.60;;;;;;5149717;27;19998;-54
2022/04/24 09:59:07;;;;;;;;;;;21.20;42.30;;;;;;5125646;27;19927;-47
2022/04/24 10:01:33;;;;;;;;;;;21.10;42.70;;;;;;5126884;27;19961;-55
2022/04/24 10:03:59;;;;;;;;;;;21.30;42.50;;;;;;5142805;27;19923;-49
2022/04/24 10:06:25;;;;;;;;;;;21.00;43.10;;;;;;5143967;27;19929;-55
2022/04/24 10:08:51;;;;;;;;;;;21.30;42.80;;;;;;5149541;27;19970;-59
2022/04/24 10:11:17;;;;;;;;;;;21.20;42.60;;;;;;5144012;27;19930;-56
2022/04/24 10:13:44;;;;;;;;;;;21.20;42.70;;;;;;5143847;27;19929;-54
2022/04/24 10:16:28;;;;;;;;;;;21.10;42.80;;;;;;5149242;27;20022;-49
2022/04/24 10:19:00;;;;;;;;;;;21.30;42.80;;;;;;5142182;27;20025;-52
2022/04/24 10:21:26;;;;;;;;;;;21.10;43.30;;;;;;5140755;27;20072;-56
2022/04/24 10:23:52;;;;;;;;;;;21.20;43.00;;;;;;5146674;27;19927;-54
2022/04/24 10:26:17;;;;;;;;;;;21.10;43.60;;;;;;5143486;27;19931;-49
2022/04/24 10:28:45;;;;;;;;;;;21.20;43.20;;;;;;5146760;27;19923;-55
2022/04/24 10:31:11;;;;;;;;;;;21.10;43.30;;;;;;5147204;27;19927;-55
2022/04/24 10:33:38;;;;;;;;;;;21.10;43.30;;;;;;5143774;27;19924;-59
2022/04/24 10:36:04;;;;;;;;;;;21.20;43.10;;;;;;5149012;27;19927;-58
2022/04/24 10:38:30;;;;;;;;;;;21.10;43.60;;;;;;5139571;27;19950;-58
2022/04/24 10:41:06;;;;;;;;;;;21.20;43.20;;;;;;5142264;27;19923;-57
2022/04/24 10:43:39;;;;;;;;;;;21.00;44.00;;;;;;5148918;27;19930;-58
2022/04/24 10:46:15;;;;;;;;;;;21.20;43.20;;;;;;5143352;27;19980;-59
2022/04/24 10:48:46;;;;;;;;;;;21.00;43.80;;;;;;5143502;27;19938;-58
2022/04/24 10:51:13;;;;;;;;;;;21.10;43.60;;;;;;5128333;27;22278;-57
2022/04/24 10:53:52;;;;;;;;;;;21.10;43.90;;;;;;5143560;27;19934;-51
2022/04/24 10:56:18;;;;;;;;;;;21.20;43.90;;;;;;5140433;27;19930;-53
2022/04/24 10:58:44;;;;;;;;;;;21.20;43.70;;;;;;5146779;27;20698;-56
2022/04/24 11:01:12;;;;;;;;;;;21.20;43.90;;;;;;5142921;27;20045;-56
2022/04/24 11:03:42;;;;;;;;;;;21.10;43.90;;;;;;5144416;27;20429;-57
2022/04/24 11:06:23;;;;;;;;;;;21.30;43.60;;;;;;5129541;27;19924;-51
2022/04/24 11:08:49;;;;;;;;;;;21.20;43.60;;;;;;5143138;27;19984;-55
2022/04/24 11:11:15;;;;;;;;;;;21.10;43.50;;;;;;5147553;27;19971;-57
2022/04/24 11:13:41;;;;;;;;;;;21.20;43.60;;;;;;5143474;27;19931;-58
2022/04/24 11:16:07;;;;;;;;;;;21.30;43.00;;;;;;5138773;27;19931;-52
2022/04/24 11:18:32;;;;;;;;;;;21.10;43.40;;;;;;5128075;27;19969;-58
2022/04/24 11:20:59;;;;;;;;;;;21.30;43.00;;;;;;5142720;27;20401;-51
2022/04/24 11:23:25;;;;;;;;;;;21.00;43.70;;;;;;5142625;27;19923;-57
2022/04/24 11:25:54;;;;;;;;;;;21.20;43.20;;;;;;5148197;27;19929;-56
2022/04/24 11:28:20;;;;;;;;;;;21.10;43.50;;;;;;5142502;27;19927;-53
2022/04/24 11:30:46;;;;;;;;;;;21.30;43.40;;;;;;5143141;27;19931;-53
2022/04/24 11:33:12;;;;;;;;;;;21.00;44.00;;;;;;5126199;27;19942;-51
2022/04/24 11:35:39;;;;;;;;;;;21.20;43.80;;;;;;5140638;27;20339;-54
2022/04/24 11:38:05;;;;;;;;;;;21.10;44.20;;;;;;5147825;27;19923;-48
2022/04/24 11:40:33;;;;;;;;;;;21.20;43.60;;;;;;5142604;27;20438;-52
2022/04/24 11:43:02;;;;;;;;;;;21.20;43.30;;;;;;5142727;27;20010;-57
2022/04/24 11:51:02;;;;;;;;;;;21.10;43.80;;;;;;5140007;27;19923;-50
2022/04/24 11:53:28;;;;;;;;;;;21.10;43.90;;;;;;5145118;27;19923;-55
2022/04/24 11:56:03;;;;;;;;;;;21.20;43.50;;;;;;5123416;27;19923;-55
2022/04/24 11:58:33;;;;;;;;;;;21.10;43.80;;;;;;5125087;27;19923;-56
2022/04/24 12:00:59;;;;;;;;;;;21.30;43.40;;;;;;5147751;27;19958;-51
2022/04/24 12:03:25;;;;;;;;;;;21.10;43.50;;;;;;5142195;27;19924;-56
2022/04/24 12:05:58;;;;;;;;;;;21.10;43.30;;;;;;5142423;27;20225;-54
2022/04/24 12:08:23;;;;;;;;;;;21.20;43.10;;;;;;5147602;27;19923;-54
2022/04/24 12:10:50;;;;;;;;;;;21.10;43.30;;;;;;5137771;27;19934;-53
2022/04/24 12:13:21;;;;;;;;;;;21.20;43.40;;;;;;5143842;27;19945;-55
2022/04/24 12:15:51;;;;;;;;;;;21.20;43.30;;;;;;5146858;27;19923;-53
2022/04/24 12:18:20;;;;;;;;;;;21.20;43.30;;;;;;5142112;27;19923;-58
2022/04/24 12:20:47;;;;;;;;;;;21.20;43.30;;;;;;5147627;27;20339;-47
2022/04/24 12:23:15;;;;;;;;;;;21.20;43.30;;;;;;5141834;27;19931;-58
2022/04/24 12:25:51;;;;;;;;;;;21.30;43.50;;;;;;5142015;27;19923;-58
2022/04/24 12:28:29;;;;;;;;;;;21.00;44.30;;;;;;5144011;27;19924;-58
2022/04/24 12:30:56;;;;;;;;;;;21.30;43.90;;;;;;5139714;27;20344;-56
2022/04/24 12:33:21;;;;;;;;;;;21.10;44.10;;;;;;5141609;27;19923;-51
2022/04/24 12:35:47;;;;;;;;;;;21.20;43.80;;;;;;5128565;27;19923;-53
2022/04/24 12:38:16;;;;;;;;;;;21.10;43.80;;;;;;5141739;27;19934;-51
2022/04/24 12:40:57;;;;;;;;;;;21.20;43.80;;;;;;5141885;27;20549;-53
2022/04/24 12:43:27;;;;;;;;;;;21.20;43.90;;;;;;5147378;27;19923;-50
2022/04/24 12:45:53;;;;;;;;;;;21.10;44.00;;;;;;5140193;27;20181;-56
2022/04/24 12:48:19;;;;;;;;;;;21.20;43.70;;;;;;5138124;27;20128;-56
2022/04/24 12:50:44;;;;;;;;;;;21.10;43.80;;;;;;5146295;27;19923;-57
2022/04/24 12:53:10;;;;;;;;;;;21.20;43.40;;;;;;5141553;27;19924;-50
2022/04/24 12:55:36;;;;;;;;;;;21.10;43.80;;;;;;5147179;27;20036;-52
2022/04/24 12:58:02;;;;;;;;;;;21.20;43.60;;;;;;5141468;27;19931;-47
2022/04/24 13:00:28;;;;;;;;;;;21.10;43.80;;;;;;5141265;27;19931;-50
2022/04/24 13:02:53;;;;;;;;;;;21.20;43.30;;;;;;5146653;27;19995;-55
2022/04/24 13:05:19;;;;;;;;;;;21.20;42.90;;;;;;5118934;27;20367;-53
2022/04/24 13:07:45;;;;;;;;;;;21.20;43.10;;;;;;5139656;27;19943;-51
2022/04/24 13:10:11;;;;;;;;;;;21.10;43.20;;;;;;5146431;27;19923;-54
2022/04/24 13:12:40;;;;;;;;;;;21.20;42.80;;;;;;5141176;27;19923;-51
2022/04/24 13:15:06;;;;;;;;;;;21.10;43.00;;;;;;5146030;27;19927;-53
2022/04/24 13:20:16;;;;;;;;;;;21.30;42.00;;;;;;5141050;27;19929;-55
2022/04/24 13:22:42;;;;;;;;;;;21.10;42.00;;;;;;5144568;27;19935;-59
2022/04/24 13:25:08;;;;;;;;;;;21.30;41.60;;;;;;5137897;27;19923;-50
2022/04/24 13:27:33;;;;;;;;;;;21.10;41.60;;;;;;5141811;27;19923;-56
2022/04/24 13:29:59;;;;;;;;;;;21.30;41.10;;;;;;5131619;27;19930;-56
2022/04/24 13:32:27;;;;;;;;;;;21.10;41.50;;;;;;5144694;27;20405;-53
2022/04/24 13:34:53;;;;;;;;;;;21.30;41.20;;;;;;5144554;27;20284;-56
2022/04/24 13:40:04;;;;;;;;;;;21.30;41.30;;;;;;5144816;27;19922;-57
2022/04/24 13:42:30;;;;;;;;;;;21.10;41.50;;;;;;5140222;27;20191;-55
2022/04/24 13:44:55;;;;;;;;;;;21.20;41.30;;;;;;5148908;27;19923;-55
2022/04/24 13:47:22;;;;;;;;;;;21.20;41.60;;;;;;5144369;27;20413;-57
2022/04/24 13:49:48;;;;;;;;;;;21.20;41.60;;;;;;5149777;27;19971;-50
2022/04/24 13:52:14;;;;;;;;;;;21.20;41.80;;;;;;5144626;27;20347;-58
2022/04/24 13:54:40;;;;;;;;;;;21.20;41.60;;;;;;5144328;27;19923;-52
2022/04/24 13:57:06;;;;;;;;;;;21.10;41.70;;;;;;5149612;27;19938;-57
2022/04/24 13:59:32;;;;;;;;;;;21.20;41.60;;;;;;5141892;27;19930;-55
2022/04/24 14:01:58;;;;;;;;;;;21.10;42.00;;;;;;5141377;27;20011;-56
2022/04/24 14:04:24;;;;;;;;;;;21.30;41.80;;;;;;5149151;27;19927;-58
2022/04/24 14:06:50;;;;;;;;;;;21.20;41.70;;;;;;5143917;27;19923;-53
2022/04/24 14:09:15;;;;;;;;;;;21.10;41.90;;;;;;5149513;27;19933;-53
2022/04/24 14:11:43;;;;;;;;;;;21.20;42.00;;;;;;5144279;27;20356;-51
2022/04/24 14:14:09;;;;;;;;;;;21.20;42.40;;;;;;5143787;27;19932;-58
2022/04/24 14:16:35;;;;;;;;;;;21.30;42.30;;;;;;5131128;27;20017;-49
2022/04/24 14:19:01;;;;;;;;;;;21.10;42.40;;;;;;5140077;27;19946;-54
2022/04/24 14:21:26;;;;;;;;;;;21.20;42.60;;;;;;5142226;27;19931;-50
2022/04/24 14:23:52;;;;;;;;;;;21.10;43.00;;;;;;5149129;27;19923;-58